Latest Weather Observations for Kuitpo

IDS60801

Issued at 10:41 am CST Tuesday 16 August 2022 (issued every 10 minutes, with the page automatically refreshed every 10 minutes)

About weather observations | Map of weather stations | Latest weather observations for SA | Other Formats
Station Details ID: 023887 Name: KUITPO FOREST RESERVE Lat: -35.17 Lon: 138.68 Height: 365.0 m
Data from the previous 72 hours. | See also: Recent months at Kuitpo
Date/Time
CST
Temp
°C
App
Temp
°C
Dew
Point
°C
Rel
Hum
%
Delta-T
°C
Wind Press
QNH
hPa
Press
MSL
hPa
Rain since
9am
mm
Dir  Spd
km/h
Gust
km/h
Spd
kts
Gust
kts
16/10:30am 11.3 8.3 7.6 78 1.8 S 13 19 7 10 1018.9 1019.2 0.0
16/10:00am 10.3 7.7 7.9 85 1.2 SSW 11 19 6 10 1018.8 1019.1 0.0
16/09:30am 10.4 7.7 7.5 82 1.4 SSW 11 20 6 11 1018.4 1018.6 0.0
16/09:00am 9.7 8.1 7.8 88 0.9 SSW 6 9 3 5 1018.2 1018.4 3.0
16/08:30am 8.8 6.7 8.4 97 0.2 SW 9 13 5 7 1018.2 1018.4 3.0
16/08:00am 7.9 5.7 7.9 100 0.0 SSW 9 11 5 6 1017.9 1018.1 3.0
16/07:30am 7.3 4.6 7.3 100 0.0 WSW 11 15 6 8 1017.7 1017.9 3.0
16/07:00am 6.8 3.6 6.8 100 0.0 WSW 13 15 7 8 1017.3 1017.5 3.0
16/06:30am 6.5 3.2 6.5 100 0.0 WSW 13 17 7 9 1016.8 1017.0 3.0
16/06:00am 6.4 3.5 6.4 100 0.0 W 11 15 6 8 1016.0 1016.2 3.0
16/05:30am 6.9 3.6 6.5 97 0.2 W 13 17 7 9 1015.6 1015.8 3.0
16/05:00am 7.1 3.8 6.5 96 0.3 SW 13 20 7 11 1015.0 1015.2 3.0
16/04:30am 6.8 3.8 6.2 96 0.3 SW 11 15 6 8 1014.6 1014.8 3.0
16/04:00am 7.2 3.5 6.5 95 0.3 WSW 15 19 8 10 1014.4 1014.6 3.0
16/03:30am 7.2 3.2 6.6 96 0.3 WSW 17 22 9 12 1014.2 1014.4 3.0
16/03:00am 7.0 3.8 6.7 98 0.1 W 13 19 7 10 1014.0 1014.2 2.8
16/02:30am 7.2 3.6 6.6 96 0.3 WSW 15 20 8 11 1014.1 1014.3 2.8
16/02:00am 7.4 4.3 7.3 99 0.0 SW 13 20 7 11 1014.1 1014.3 2.8
16/01:30am 7.4 3.9 7.4 100 0.0 WSW 15 20 8 11 1014.4 1014.6 2.8
16/01:00am 7.4 3.9 7.4 100 0.0 WSW 15 24 8 13 1014.2 1014.4 2.8
16/12:30am 7.5 3.7 7.5 100 0.0 SW 17 22 9 12 1013.9 1014.0 2.8
16/12:00am 7.5 4.1 7.5 100 0.0 WSW 15 22 8 12 1013.9 1014.0 2.8
 
Date/Time
CST
Temp
°C
App
Temp
°C
Dew
Point
°C
Rel
Hum
%
Delta-T
°C
Wind Press
QNH
hPa
Press
MSL
hPa
Rain since
9am
mm
Dir  Spd
km/h
Gust
km/h
Spd
kts
Gust
kts
15/11:30pm 7.4 4.7 7.4 100 0.0 WSW 11 15 6 8 1013.6 1013.7 2.8
15/11:00pm 7.5 4.5 7.5 100 0.0 WSW 13 17 7 9 1013.4 1013.5 2.8
15/10:30pm 7.6 5.0 7.6 100 0.0 WSW 11 15 6 8 1013.1 1013.3 2.8
15/10:00pm 7.6 5.0 7.6 100 0.0 WSW 11 13 6 7 1012.7 1012.9 2.8
15/09:30pm 7.8 4.8 7.8 100 0.0 WSW 13 19 7 10 1012.5 1012.7 2.8
15/09:00pm 8.0 5.5 8.0 100 0.0 WSW 11 15 6 8 1012.4 1012.6 2.6
15/08:30pm 8.3 5.8 8.3 100 0.0 SW 11 15 6 8 1012.0 1012.2 2.6
15/08:00pm 8.3 5.8 8.3 100 0.0 SW 11 17 6 9 1012.0 1012.2 2.6
15/07:30pm 8.4 5.9 8.4 100 0.0 WSW 11 15 6 8 1011.5 1011.6 2.6
15/07:00pm 8.7 6.7 8.7 100 0.0 WSW 9 15 5 8 1011.4 1011.5 2.6
15/06:30pm 8.7 7.1 8.7 100 0.0 WSW 7 9 4 5 1010.8 1010.9 2.6
15/06:00pm 8.5 6.5 8.5 100 0.0 WSW 9 17 5 9 1010.1 1010.3 2.6
15/05:30pm 8.9 7.0 8.9 100 0.0 SW 9 17 5 9 1009.8 1010.0 2.6
15/05:00pm 8.8 6.4 8.7 99 0.0 SW 11 20 6 11 1009.3 1009.5 2.4
15/04:30pm 10.0 5.8 7.6 85 1.2 WSW 19 28 10 15 1009.0 1009.1 0.2
15/04:00pm 11.0 8.3 8.8 86 1.1 WSW 13 24 7 13 1008.5 1008.6 0.2
15/03:30pm 10.7 7.1 8.3 85 1.2 WSW 17 28 9 15 1008.4 1008.5 0.2
15/03:00pm 10.6 6.9 8.0 84 1.3 WSW 17 28 9 15 1008.2 1008.3 0.2
15/02:30pm 10.9 7.3 8.3 84 1.3 WSW 17 24 9 13 1008.1 1008.2 0.2
15/02:00pm 10.9 7.7 8.3 84 1.3 WSW 15 20 8 11 1008.1 1008.2 0.2
15/01:30pm 10.9 8.0 8.3 84 1.3 WSW 13 22 7 12 1008.1 1008.2 0.2
15/01:00pm 11.2 7.5 7.9 80 1.6 W 17 30 9 16 1008.4 1008.5 0.2
15/12:30pm 11.0 7.3 7.9 81 1.5 W 17 26 9 14 1008.5 1008.6 0.2
15/12:00pm 10.7 7.1 8.3 85 1.2 W 17 24 9 13 1008.7 1008.8 0.2
15/11:30am 10.9 8.1 8.7 86 1.1 W 13 20 7 11 1008.9 1009.0 0.2
15/11:00am 10.2 7.2 7.8 85 1.2 W 13 20 7 11 1008.9 1009.0 0.2
15/10:30am 9.9 6.4 7.3 84 1.3 W 15 24 8 13 1009.1 1009.2 0.2
15/10:00am 9.6 7.5 9.6 100 0.0 W 11 17 6 9 1009.2 1009.3 0.0
15/09:30am 9.2 6.6 9.2 100 0.0 W 13 20 7 11 1009.2 1009.3 0.0
15/09:00am 9.0 5.9 9.0 100 0.0 WSW 15 26 8 14 1009.1 1009.2 4.4
15/08:30am 8.8 5.3 8.8 100 0.0 WSW 17 28 9 15 1008.9 1009.0 4.4
15/08:00am 8.9 5.4 8.9 100 0.0 WSW 17 30 9 16 1008.7 1008.8 3.8
15/07:30am 9.0 5.6 9.0 100 0.0 WNW 17 28 9 15 1008.6 1008.7 2.6
15/07:00am 8.9 5.8 8.9 100 0.0 WNW 15 24 8 13 1008.5 1008.6 2.6
15/06:30am 8.8 5.3 8.8 100 0.0 NW 17 26 9 14 1008.5 1008.6 2.6
15/06:00am 8.6 5.8 8.6 100 0.0 NW 13 28 7 15 1008.5 1008.6 2.4
15/05:30am 8.5 6.1 8.5 100 0.0 WNW 11 19 6 10 1008.5 1008.6 0.8
15/05:00am 8.3 5.8 8.3 100 0.0 W 11 19 6 10 1008.6 1008.7 0.6
15/04:30am 8.4 5.6 8.4 100 0.0 WSW 13 22 7 12 1008.6 1008.7 0.4
15/04:00am 8.9 5.8 8.9 100 0.0 WNW 15 22 8 12 1008.6 1008.7 0.4
15/03:30am 9.0 5.6 9.0 100 0.0 NW 17 24 9 13 1008.8 1008.9 0.4
15/03:00am 8.9 6.2 8.9 100 0.0 WNW 13 22 7 12 1009.0 1009.1 0.4
15/02:30am 8.9 5.8 8.9 100 0.0 WNW 15 24 8 13 1009.3 1009.5 0.4
15/02:00am 9.1 5.7 9.1 100 0.0 WNW 17 24 9 13 1009.6 1009.8 0.4
15/01:30am 9.1 6.1 9.1 100 0.0 WNW 15 24 8 13 1009.9 1010.1 0.4
15/01:00am 9.1 6.1 9.1 100 0.0 WNW 15 24 8 13 1010.3 1010.5 0.4
15/12:30am 9.1 6.4 9.1 100 0.0 WNW 13 19 7 10 1010.6 1010.7 0.4
15/12:00am 9.0 5.6 9.0 100 0.0 WNW 17 24 9 13 1010.7 1010.8 0.4
 
Date/Time
CST
Temp
°C
App
Temp
°C
Dew
Point
°C
Rel
Hum
%
Delta-T
°C
Wind Press
QNH
hPa
Press
MSL
hPa
Rain since
9am
mm
Dir  Spd
km/h
Gust
km/h
Spd
kts
Gust
kts
14/11:30pm 9.1 6.1 9.1 100 0.0 WNW 15 20 8 11 1010.9 1011.0 0.4
14/11:00pm 9.2 5.8 9.2 100 0.0 WNW 17 24 9 13 1011.2 1011.3 0.4
14/10:30pm 9.3 6.3 9.3 100 0.0 WNW 15 20 8 11 1011.3 1011.4 0.4
14/10:00pm 9.3 7.1 9.3 100 0.0 WNW 11 19 6 10 1011.4 1011.5 0.4
14/09:30pm 9.4 6.8 9.4 100 0.0 WNW 13 20 7 11 1011.7 1011.9 0.4
14/09:00pm 9.3 6.3 9.3 100 0.0 NW 15 22 8 12 1011.8 1012.0 0.4
14/08:30pm 9.1 6.1 9.1 100 0.0 WNW 15 20 8 11 1012.0 1012.2 0.4
14/08:00pm 9.0 6.7 9.0 100 0.0 NW 11 15 6 8 1011.9 1012.1 0.4
14/07:30pm 9.0 6.3 9.0 100 0.0 NW 13 19 7 10 1011.9 1012.1 0.4
14/07:00pm 9.1 6.4 9.1 100 0.0 NW 13 17 7 9 1011.8 1012.0 0.4
14/06:30pm 9.2 7.0 9.2 100 0.0 NW 11 17 6 9 1011.8 1012.0 0.4
14/06:00pm 9.2 6.4 8.7 97 0.2 WNW 13 20 7 11 1011.8 1012.0 0.4
14/05:30pm 9.4 6.6 8.5 94 0.4 WNW 13 19 7 10 1011.6 1011.8 0.4
14/05:00pm 9.9 6.9 7.7 86 1.1 W 13 22 7 12 1011.7 1011.9 0.4
14/04:30pm 10.8 7.2 6.7 76 2.0 W 15 20 8 11 1011.7 1011.9 0.4
14/04:00pm 11.3 7.9 7.6 78 1.8 W 15 22 8 12 1011.8 1012.0 0.4
14/03:30pm 11.0 8.2 8.4 84 1.3 WSW 13 20 7 11 1011.8 1012.0 0.4
14/03:00pm 11.3 8.5 8.5 83 1.4 WSW 13 20 7 11 1012.0 1012.2 0.4
14/02:30pm 11.8 7.9 8.8 82 1.5 WSW 19 26 10 14 1012.0 1012.2 0.4
14/02:00pm 11.7 7.9 8.9 83 1.4 W 19 30 10 16 1012.1 1012.3 0.4
14/01:30pm 11.4 8.0 9.1 86 1.2 W 17 26 9 14 1012.4 1012.6 0.4
14/01:00pm 11.0 8.1 9.8 92 0.6 W 15 20 8 11 1012.8 1013.0 0.4
14/12:30pm 11.0 8.0 9.4 90 0.8 W 15 24 8 13 1013.0 1013.2 0.4
14/12:00pm 11.6 9.4 10.7 94 0.5 WSW 13 20 7 11 1013.2 1013.4 0.4
14/11:30am 10.5 8.2 10.5 100 0.0 WSW 13 19 7 10 1013.6 1013.7 0.4
14/11:00am 10.1 8.1 10.1 100 0.0 WSW 11 19 6 10 1013.9 1014.0 0.4
14/10:30am 9.7 8.0 9.7 100 0.0 WSW 9 11 5 6 1014.0 1014.2 0.4
14/10:00am 9.5 7.3 9.5 100 0.0 WSW 11 19 6 10 1014.0 1014.2 0.2
14/09:30am 9.3 7.1 9.3 100 0.0 W 11 17 6 9 1014.1 1014.3 0.0
14/09:00am 9.1 7.2 9.1 100 0.0 W 9 15 5 8 1013.9 1014.0 3.2
14/08:30am 8.8 6.8 8.8 100 0.0 WSW 9 13 5 7 1013.9 1014.0 3.2
14/08:00am 8.6 6.6 8.6 100 0.0 W 9 15 5 8 1013.6 1013.7 3.2
14/07:30am 8.3 6.6 8.3 100 0.0 WNW 7 9 4 5 1013.2 1013.4 3.2
14/07:00am 8.0 5.8 8.0 100 0.0 W 9 11 5 6 1012.7 1012.9 3.2
14/06:30am 7.9 5.7 7.9 100 0.0 W 9 15 5 8 1012.3 1012.5 3.2
14/06:00am 7.9 5.7 7.9 100 0.0 WSW 9 13 5 7 1012.3 1012.5 3.2
14/05:30am 8.0 5.8 8.0 100 0.0 WSW 9 13 5 7 1012.2 1012.4 3.2
14/05:00am 8.1 6.0 8.1 100 0.0 WSW 9 11 5 6 1012.2 1012.4 3.2
14/04:30am 7.8 6.0 7.8 100 0.0 SW 7 11 4 6 1012.0 1012.2 3.2
14/04:00am 7.9 6.1 7.9 100 0.0 WSW 7 13 4 7 1012.1 1012.3 3.2
14/03:30am 7.8 5.6 7.8 100 0.0 WSW 9 13 5 7 1011.9 1012.1 3.2
14/03:00am 7.9 6.1 7.9 100 0.0 SW 7 13 4 7 1012.0 1012.2 3.2
14/02:30am 8.1 6.3 8.1 100 0.0 WSW 7 13 4 7 1012.3 1012.5 3.2
14/02:00am 8.0 5.8 8.0 100 0.0 WSW 9 11 5 6 1012.5 1012.7 3.2
14/01:30am 8.1 5.2 8.1 100 0.0 WSW 13 17 7 9 1012.6 1012.8 3.2
14/01:00am 7.5 5.2 7.5 100 0.0 WSW 9 13 5 7 1012.6 1012.8 3.2
14/12:30am 7.5 5.2 7.5 100 0.0 W 9 11 5 6 1012.6 1012.8 3.2
14/12:00am 7.7 5.5 7.7 100 0.0 SW 9 11 5 6 1012.7 1012.9 3.2
 
Date/Time
CST
Temp
°C
App
Temp
°C
Dew
Point
°C
Rel
Hum
%
Delta-T
°C
Wind Press
QNH
hPa
Press
MSL
hPa
Rain since
9am
mm
Dir  Spd
km/h
Gust
km/h
Spd
kts
Gust
kts
13/11:30pm 7.8 5.6 7.8 100 0.0 W 9 13 5 7 1012.8 1013.0 3.2
13/11:00pm 8.2 6.1 8.2 100 0.0 W 9 13 5 7 1012.9 1013.1 3.0
13/10:30pm 8.2 6.1 8.2 100 0.0 WSW 9 15 5 8 1012.9 1013.1 3.0
13/10:00pm 8.2 5.7 8.2 100 0.0 WSW 11 17 6 9 1012.9 1013.1 3.0
13/09:30pm 8.2 5.3 8.2 100 0.0 WSW 13 17 7 9 1013.0 1013.2 3.0
13/09:00pm 8.4 5.6 8.4 100 0.0 WSW 13 20 7 11 1013.0 1013.2 3.0
13/08:30pm 8.4 5.6 8.4 100 0.0 SW 13 20 7 11 1012.9 1013.1 3.0
13/08:00pm 8.2 5.3 8.2 100 0.0 SW 13 19 7 10 1012.6 1012.8 3.0
13/07:30pm 8.3 5.4 8.3 100 0.0 WSW 13 19 7 10 1012.4 1012.6 3.0
13/07:00pm 8.1 6.0 8.1 100 0.0 W 9 13 5 7 1012.1 1012.3 3.0
13/06:30pm 8.2 6.1 8.2 100 0.0 WSW 9 13 5 7 1011.9 1012.1 3.0
13/06:00pm 8.6 6.2 8.6 100 0.0 WSW 11 17 6 9 1011.7 1011.9 3.0
13/05:30pm 9.2 6.2 9.1 99 0.1 WSW 15 20 8 11 1011.6 1011.8 3.0
13/05:00pm 10.1 8.1 10.0 99 0.1 WSW 11 20 6 11 1011.4 1011.5 3.0
13/04:30pm 9.7 6.3 9.2 97 0.3 SW 17 24 9 13 1011.3 1011.4 3.0
13/04:00pm 11.2 6.8 8.8 85 1.2 WSW 22 35 12 19 1011.1 1011.2 2.8
13/03:30pm 11.4 8.0 9.0 85 1.2 WSW 17 30 9 16 1011.2 1011.3 2.8
13/03:00pm 12.0 8.1 9.4 84 1.3 WSW 20 32 11 17 1011.1 1011.2 2.8
13/02:30pm 11.0 7.2 8.9 87 1.1 WSW 19 30 10 16 1011.0 1011.1 2.8
13/02:00pm 10.8 7.5 9.4 91 0.7 WSW 17 26 9 14 1011.1 1011.2 2.8
13/01:30pm 11.0 8.9 11.0 100 0.0 WSW 13 24 7 13 1011.1 1011.2 2.8
13/01:00pm 10.0 7.6 9.9 99 0.1 WSW 13 22 7 12 1011.3 1011.4 2.2
13/12:30pm 9.8 7.3 9.8 100 0.0 WSW 13 24 7 13 1011.7 1011.9 2.0
13/12:00pm 10.2 7.8 10.1 99 0.1 WSW 13 20 7 11 1011.8 1012.0 1.0
13/11:30am 9.7 7.5 9.4 98 0.2 WSW 11 19 6 10 1012.0 1012.2 1.0
13/11:00am 10.9 9.2 9.7 92 0.6 WSW 9 15 5 8 1011.9 1012.1 0.0

Other formats

Comma delimited format used in spreadsheet applications
http://www.bom.gov.au/fwo/IDS60801/IDS60801.94683.axf

JavaScript Object Notation format (JSON) in row-major order
http://www.bom.gov.au/fwo/IDS60801/IDS60801.94683.json

Data quality

Most of these data are generated automatically and are frequently updated. Quality checks on data are not normally performed. It is possible for incorrect values to appear. Refer to information at About Latest Weather Observations and please check the disclaimer before using these data.